C. Angelo — WCZ5866 — position and weather

sailwx.info

Track history (hours):
 
Tides and Currents Weather Stations Pressure Air Temp Water Temp Dewpoint Dewpoint Depression Visibility Wind Speed Wind Dir Waves Ship Positions

C. Angelo

Owner: G T 110 INC, NEW HAVEN, CT. More information available from US FCC via Universal Licensing System and Coast Guard Vessel Documentation Center.

Last reported at 2014-Dec-22 20:33 UTC. Time now 2014-Dec-22 21:18 UTC.
Position N 41°00' W 071°50'.

Length 30 m; draft 4.1 m.

Type: Tug. MMSI: 366988420.

Date/timePositionNaut miles runAvg speedWind from/ knotsBaromVisibWave heightAir tempDewpointWater temp
2014-Dec-22 20:33N 41°00' W 071°50'5 5.3
2014-Dec-22 19:33N 40°58' W 071°56'5 5.4
2014-Dec-22 18:33N 40°56' W 072°03'6 5.5
2014-Dec-22 17:34N 40°54' W 072°10'6 5.6
2014-Dec-22 16:33N 40°52' W 072°17'6 5.8
2014-Dec-22 15:34N 40°50' W 072°24'6 5.9
2014-Dec-22 14:33N 40°47' W 072°31'6 6.1
2014-Dec-22 13:33N 40°45' W 072°38'6 6.3
2014-Dec-22 12:33N 40°42' W 072°46'6 6.2
2014-Dec-22 11:33N 40°40' W 072°53'6 6.1
2014-Dec-22 10:33N 40°38' W 073°01'6 6.0
2014-Dec-22 09:32N 40°36' W 073°08'6 5.9
2014-Dec-22 08:30N 40°33' W 073°16'7 6.0
2014-Dec-22 07:24N 40°28' W 073°21'5 6.3
2014-Dec-22 06:33N 40°23' W 073°24'6 6.3
2014-Dec-22 05:33N 40°18' W 073°29'6 6.3
2014-Dec-22 04:32N 40°13' W 073°34'6 6.5
2014-Dec-22 03:32N 40°08' W 073°39'6 6.4
2014-Dec-22 02:32N 40°02' W 073°44'7 6.5
2014-Dec-22 01:30N 39°57' W 073°49'6 6.3
2014-Dec-22 00:33N 39°52' W 073°53'6 6.5
2014-Dec-21 23:33N 39°46' W 073°57'7 6.5
2014-Dec-21 22:33N 39°41' W 074°01'6 6.4
2014-Dec-21 21:33N 39°35' W 074°05'6 6.2
2014-Dec-21 20:33N 39°29' W 074°08'  
Track history (hours):
 
Tides and Currents Weather Stations Pressure Air Temp Water Temp Dewpoint Dewpoint Depression Visibility Wind Speed Wind Dir Waves Ship Positions

C. Angelo

Owner: G T 110 INC, NEW HAVEN, CT. More information available from US FCC via Universal Licensing System and Coast Guard Vessel Documentation Center.

Last reported at 2014-Dec-22 20:33 UTC. Time now 2014-Dec-22 21:18 UTC.
Position N 41°00' W 071°50'.

Length 30 m; draft 4.1 m.

Type: Tug. MMSI: 366988420.

Date/timePositionNaut miles runAvg speedWind from/ knotsBaromVisibWave heightAir tempDewpointWater temp
2014-Dec-22 20:33N 41°00' W 071°50'5 5.3
2014-Dec-22 19:33N 40°58' W 071°56'5 5.4
2014-Dec-22 18:33N 40°56' W 072°03'6 5.5
2014-Dec-22 17:34N 40°54' W 072°10'6 5.6
2014-Dec-22 16:33N 40°52' W 072°17'6 5.8
2014-Dec-22 15:34N 40°50' W 072°24'6 5.9
2014-Dec-22 14:33N 40°47' W 072°31'6 6.1
2014-Dec-22 13:33N 40°45' W 072°38'6 6.3
2014-Dec-22 12:33N 40°42' W 072°46'6 6.2
2014-Dec-22 11:33N 40°40' W 072°53'6 6.1
2014-Dec-22 10:33N 40°38' W 073°01'6 6.0
2014-Dec-22 09:32N 40°36' W 073°08'6 5.9
2014-Dec-22 08:30N 40°33' W 073°16'7 6.0
2014-Dec-22 07:24N 40°28' W 073°21'5 6.3
2014-Dec-22 06:33N 40°23' W 073°24'6 6.3
2014-Dec-22 05:33N 40°18' W 073°29'6 6.3
2014-Dec-22 04:32N 40°13' W 073°34'6 6.5
2014-Dec-22 03:32N 40°08' W 073°39'6 6.4
2014-Dec-22 02:32N 40°02' W 073°44'7 6.5
2014-Dec-22 01:30N 39°57' W 073°49'6 6.3
2014-Dec-22 00:33N 39°52' W 073°53'6 6.5
2014-Dec-21 23:33N 39°46' W 073°57'7 6.5
2014-Dec-21 22:33N 39°41' W 074°01'6 6.4
2014-Dec-21 21:33N 39°35' W 074°05'6 6.2
2014-Dec-21 20:33N 39°29' W 074°08'  

Dump ship's entire track history